createdAt,value
2017-12-31T00:00:26.322Z,16.33
2017-12-31T00:02:53.769Z,13.67
2017-12-31T00:05:21.196Z,20.03
2017-12-31T00:07:48.623Z,12.80
2017-12-31T00:10:16.055Z,17.67
2017-12-31T00:12:43.488Z,14.17
2017-12-31T00:15:10.912Z,16.33
2017-12-31T00:17:38.735Z,11.20
2017-12-31T00:20:06.163Z,13.23
2017-12-31T00:22:33.588Z,22.03
2017-12-31T00:25:01.408Z,15.93
2017-12-31T00:27:28.848Z,17.43
2017-12-31T00:29:56.271Z,20.10
2017-12-31T00:32:23.690Z,20.73
2017-12-31T00:34:51.137Z,16.80
2017-12-31T00:37:18.559Z,21.83
2017-12-31T00:39:45.987Z,16.80
2017-12-31T00:42:13.775Z,18.00
2017-12-31T00:44:41.199Z,25.03
2017-12-31T00:47:08.631Z,15.77
2017-12-31T00:49:36.159Z,18.47
2017-12-31T00:52:03.584Z,18.60
2017-12-31T00:54:31.003Z,24.43
2017-12-31T00:56:58.943Z,11.77
2017-12-31T00:59:26.380Z,12.53
2017-12-31T01:01:53.802Z,15.97
2017-12-31T01:04:21.245Z,16.43
2017-12-31T01:06:49.059Z,13.50
2017-12-31T01:09:16.490Z,21.73
2017-12-31T01:11:43.915Z,20.97
2017-12-31T01:14:11.743Z,27.23
2017-12-31T01:16:39.190Z,21.43
2017-12-31T01:19:06.620Z,17.60
2017-12-31T01:21:34.060Z,21.97
2017-12-31T01:24:01.481Z,18.20
2017-12-31T01:26:28.907Z,19.23
2017-12-31T01:28:56.366Z,21.97
2017-12-31T01:31:23.790Z,20.43
2017-12-31T01:33:51.219Z,19.63
2017-12-31T01:36:18.664Z,20.93
2017-12-31T01:38:46.483Z,13.23
2017-12-31T01:41:13.917Z,17.97
2017-12-31T01:43:41.343Z,18.87
2017-12-31T01:46:09.167Z,28.43
2017-12-31T01:48:37.502Z,21.40
2017-12-31T01:51:04.932Z,17.60
2017-12-31T01:53:32.755Z,20.50
2017-12-31T01:56:00.297Z,17.43
2017-12-31T01:58:27.723Z,13.67
2017-12-31T02:00:55.151Z,24.53
2017-12-31T02:03:22.974Z,29.10
2017-12-31T02:05:50.419Z,17.07
2017-12-31T02:08:17.852Z,20.93
2017-12-31T02:10:45.284Z,23.73
2017-12-31T02:13:13.115Z,30.87
2017-12-31T02:15:40.755Z,25.87
2017-12-31T02:18:08.183Z,22.07
2017-12-31T02:20:35.613Z,23.40
2017-12-31T02:23:03.035Z,18.60
2017-12-31T02:25:30.466Z,22.83
2017-12-31T02:27:57.903Z,23.10
2017-12-31T02:30:25.330Z,23.30
2017-12-31T02:32:53.155Z,15.20
2017-12-31T02:35:20.599Z,21.17
2017-12-31T02:37:48.031Z,15.47
2017-12-31T02:40:15.460Z,20.70
2017-12-31T02:42:43.476Z,22.07
2017-12-31T02:45:10.909Z,20.10
2017-12-31T02:47:38.330Z,16.67
2017-12-31T02:50:05.764Z,17.90
2017-12-31T02:52:33.191Z,15.47
2017-12-31T02:55:00.615Z,27.77
2017-12-31T02:57:28.047Z,26.77
2017-12-31T02:59:55.469Z,15.00
2017-12-31T03:02:22.908Z,25.70
2017-12-31T03:04:50.336Z,14.30
2017-12-31T03:07:17.759Z,26.20
2017-12-31T03:09:45.195Z,16.47
2017-12-31T03:12:12.624Z,22.33
2017-12-31T03:14:40.052Z,21.13
2017-12-31T03:17:08.355Z,22.87
2017-12-31T03:19:35.783Z,26.93
2017-12-31T03:22:03.207Z,24.73
2017-12-31T03:24:30.632Z,22.43
2017-12-31T03:26:58.059Z,23.93
2017-12-31T03:29:25.483Z,16.53
2017-12-31T03:31:53.304Z,18.13
2017-12-31T03:34:20.735Z,14.87
2017-12-31T03:36:48.160Z,16.53
2017-12-31T03:39:16.011Z,18.63
2017-12-31T03:41:43.698Z,16.13
2017-12-31T03:44:11.124Z,13.63
2017-12-31T03:46:38.543Z,17.23
2017-12-31T03:49:05.992Z,14.50
2017-12-31T03:51:33.415Z,13.90
2017-12-31T03:54:00.843Z,24.43
2017-12-31T03:56:28.287Z,19.53
2017-12-31T03:58:55.715Z,29.97
2017-12-31T04:01:23.139Z,15.80
2017-12-31T04:03:50.584Z,20.10
2017-12-31T04:06:18.403Z,19.50
2017-12-31T04:08:45.822Z,12.57
2017-12-31T04:11:13.252Z,22.00
2017-12-31T04:13:41.067Z,19.50
2017-12-31T04:16:08.494Z,19.40
2017-12-31T04:18:36.044Z,18.67
2017-12-31T04:21:03.467Z,14.80
2017-12-31T04:23:30.901Z,16.00
2017-12-31T04:25:58.340Z,13.53
2017-12-31T04:28:25.768Z,17.33
2017-12-31T04:30:53.189Z,14.07
2017-12-31T04:33:21.009Z,15.07
2017-12-31T04:35:48.439Z,16.17
2017-12-31T04:38:15.867Z,17.37
2017-12-31T04:40:43.686Z,20.67
2017-12-31T04:43:11.124Z,25.17
2017-12-31T04:45:38.555Z,18.47
2017-12-31T04:48:05.983Z,18.83
2017-12-31T04:50:33.411Z,17.60
2017-12-31T04:53:00.872Z,12.00
2017-12-31T04:55:28.303Z,18.03
2017-12-31T04:57:55.740Z,17.80
2017-12-31T05:00:23.523Z,16.80
2017-12-31T05:02:50.951Z,17.30
2017-12-31T05:05:18.381Z,21.80
2017-12-31T05:07:46.211Z,21.57
2017-12-31T05:10:13.647Z,11.03
2017-12-31T05:12:41.083Z,19.33
2017-12-31T05:15:08.527Z,16.20
2017-12-31T05:17:35.952Z,23.03
2017-12-31T05:20:03.376Z,17.10
2017-12-31T05:22:30.803Z,18.10
2017-12-31T05:24:58.251Z,14.93
2017-12-31T05:27:25.675Z,15.00
2017-12-31T05:29:53.111Z,22.53
2017-12-31T05:32:20.540Z,15.03
2017-12-31T05:34:47.973Z,17.17
2017-12-31T05:37:15.675Z,15.10
2017-12-31T05:39:43.110Z,17.10
2017-12-31T05:42:10.540Z,19.40
2017-12-31T05:44:38.074Z,11.03
2017-12-31T05:47:05.895Z,22.50
2017-12-31T05:49:34.159Z,21.50
2017-12-31T05:52:01.592Z,18.60
2017-12-31T05:54:29.027Z,17.67
2017-12-31T05:56:56.863Z,13.60
2017-12-31T05:59:24.283Z,18.70
2017-12-31T06:01:51.719Z,21.30
2017-12-31T06:04:19.147Z,13.70
2017-12-31T06:06:46.972Z,21.63
2017-12-31T06:09:14.425Z,17.57
2017-12-31T06:11:41.852Z,22.90
2017-12-31T06:14:09.272Z,19.63
2017-12-31T06:16:37.099Z,16.40
2017-12-31T06:19:05.359Z,23.30
2017-12-31T06:21:33.290Z,26.20
2017-12-31T06:24:01.117Z,23.57
2017-12-31T06:26:28.711Z,17.20
2017-12-31T06:28:56.526Z,17.23
2017-12-31T06:31:23.962Z,19.20
2017-12-31T06:33:51.407Z,16.90
2017-12-31T06:36:18.836Z,16.60
2017-12-31T06:38:46.651Z,14.43
2017-12-31T06:41:14.089Z,18.77
2017-12-31T06:43:41.514Z,24.27
2017-12-31T06:46:09.335Z,17.57
2017-12-31T06:48:36.779Z,15.17
2017-12-31T06:51:04.198Z,14.17
2017-12-31T06:53:31.631Z,21.57
2017-12-31T06:55:59.452Z,15.00
2017-12-31T06:58:26.890Z,20.03
2017-12-31T07:00:54.314Z,16.47
2017-12-31T07:03:22.136Z,18.37
2017-12-31T07:05:49.882Z,20.23
2017-12-31T07:08:17.302Z,14.07
2017-12-31T07:10:44.732Z,21.67
2017-12-31T07:13:12.163Z,20.50
2017-12-31T07:15:39.595Z,27.10
2017-12-31T07:18:07.056Z,17.23
2017-12-31T07:20:34.469Z,13.80
2017-12-31T07:23:02.439Z,13.27
2017-12-31T07:25:29.859Z,21.47
2017-12-31T07:27:57.295Z,19.83
2017-12-31T07:30:24.737Z,18.50
2017-12-31T07:32:52.167Z,14.17
2017-12-31T07:35:19.591Z,23.13
2017-12-31T07:37:48.248Z,16.20
2017-12-31T07:40:15.682Z,14.80
2017-12-31T07:42:43.124Z,21.80
2017-12-31T07:45:10.572Z,21.27
2017-12-31T07:47:37.998Z,22.90
2017-12-31T07:50:06.007Z,18.07
2017-12-31T07:52:33.436Z,27.20
2017-12-31T07:55:00.864Z,22.37
2017-12-31T07:57:28.691Z,17.07
2017-12-31T07:59:57.031Z,23.20
2017-12-31T08:02:24.460Z,28.07
2017-12-31T08:04:52.295Z,26.43
2017-12-31T08:07:19.719Z,23.93
2017-12-31T08:09:47.144Z,26.60
2017-12-31T08:12:15.359Z,17.40
2017-12-31T08:14:42.792Z,23.23
2017-12-31T08:17:10.222Z,14.67
2017-12-31T08:19:38.047Z,20.13
2017-12-31T08:22:05.507Z,22.40
2017-12-31T08:24:33.042Z,27.17
2017-12-31T08:27:00.450Z,28.53
2017-12-31T08:29:28.296Z,27.43
2017-12-31T08:31:55.715Z,23.17
2017-12-31T08:34:23.147Z,35.77
2017-12-31T08:36:50.609Z,29.77
2017-12-31T08:39:18.060Z,19.93
2017-12-31T08:41:45.464Z,14.90
2017-12-31T08:44:13.963Z,27.90
2017-12-31T08:46:41.383Z,34.03
2017-12-31T08:49:08.982Z,23.47
2017-12-31T08:51:36.806Z,25.30
2017-12-31T08:54:04.234Z,20.47
2017-12-31T08:56:31.654Z,29.10
2017-12-31T08:58:59.480Z,32.03
2017-12-31T09:01:27.586Z,29.33
2017-12-31T09:03:55.020Z,26.67
2017-12-31T09:06:22.546Z,31.53
2017-12-31T09:08:49.963Z,33.47
2017-12-31T09:11:17.816Z,32.40
2017-12-31T09:13:45.244Z,29.53
2017-12-31T09:16:12.679Z,22.50
2017-12-31T09:18:40.125Z,23.43
2017-12-31T09:21:07.637Z,27.27
2017-12-31T09:23:35.059Z,33.50
2017-12-31T09:26:02.531Z,34.83
2017-12-31T09:28:30.131Z,22.73
2017-12-31T09:30:57.571Z,19.20
2017-12-31T09:33:25.523Z,25.93
2017-12-31T09:35:52.941Z,22.90
2017-12-31T09:38:20.366Z,22.13
2017-12-31T09:40:47.971Z,29.83
2017-12-31T09:43:15.447Z,27.27
2017-12-31T09:45:43.371Z,25.17
2017-12-31T09:48:11.023Z,24.17
2017-12-31T09:50:38.439Z,16.47
2017-12-31T09:53:06.264Z,25.83
2017-12-31T09:55:33.754Z,29.90
2017-12-31T09:58:01.155Z,28.80
2017-12-31T10:00:28.583Z,20.47
2017-12-31T10:02:56.057Z,18.23
2017-12-31T10:05:23.495Z,26.83
2017-12-31T10:07:50.920Z,20.80
2017-12-31T10:10:18.747Z,21.73
2017-12-31T10:12:46.175Z,23.20
2017-12-31T10:15:13.624Z,18.63
2017-12-31T10:17:41.059Z,25.87
2017-12-31T10:20:09.040Z,17.77
2017-12-31T10:22:36.479Z,20.47
2017-12-31T10:25:04.475Z,24.90
2017-12-31T10:27:31.897Z,22.63
2017-12-31T10:29:59.720Z,21.33
2017-12-31T10:32:27.175Z,24.60
2017-12-31T10:34:54.612Z,16.40
2017-12-31T10:37:22.039Z,21.90
2017-12-31T10:39:49.875Z,21.17
2017-12-31T10:42:17.295Z,22.47
2017-12-31T10:44:44.720Z,16.93
2017-12-31T10:47:13.327Z,24.30
2017-12-31T10:49:40.760Z,19.87
2017-12-31T10:52:08.214Z,21.73
2017-12-31T10:54:35.647Z,17.27
2017-12-31T10:57:04.191Z,20.17
2017-12-31T10:59:31.722Z,25.00
2017-12-31T11:01:59.211Z,16.73
2017-12-31T11:04:26.660Z,20.47
2017-12-31T11:06:54.398Z,19.30
2017-12-31T11:09:21.832Z,16.90
2017-12-31T11:11:49.287Z,31.57
2017-12-31T11:14:16.739Z,14.83
2017-12-31T11:16:44.273Z,13.30
2017-12-31T11:19:11.708Z,17.00
2017-12-31T11:21:39.144Z,12.27
2017-12-31T11:24:07.533Z,12.43
2017-12-31T11:26:35.061Z,12.53
2017-12-31T11:29:02.469Z,11.57
2017-12-31T11:31:29.908Z,15.10
2017-12-31T11:33:57.324Z,12.63
2017-12-31T11:36:24.747Z,13.10
2017-12-31T11:38:52.567Z,13.67
2017-12-31T11:41:20.016Z,11.17
2017-12-31T11:43:47.452Z,16.70
2017-12-31T11:46:15.266Z,11.70
2017-12-31T11:48:42.704Z,14.13
2017-12-31T11:51:10.146Z,10.40
2017-12-31T11:53:37.559Z,12.60
2017-12-31T11:56:05.047Z,12.87
2017-12-31T11:58:32.475Z,12.87
2017-12-31T12:00:59.904Z,12.93
2017-12-31T12:03:27.736Z,17.47
2017-12-31T12:05:55.160Z,12.17
2017-12-31T12:08:22.610Z,12.13
2017-12-31T12:10:50.380Z,14.53
2017-12-31T12:13:17.820Z,14.47
2017-12-31T12:15:45.288Z,15.57
2017-12-31T12:18:12.712Z,14.77
2017-12-31T12:20:40.534Z,13.63
2017-12-31T12:23:07.967Z,11.60
2017-12-31T12:25:35.402Z,14.27
2017-12-31T12:28:03.812Z,12.57
2017-12-31T12:30:31.246Z,16.57
2017-12-31T12:32:58.671Z,19.23
2017-12-31T12:35:26.500Z,14.67
2017-12-31T12:37:53.952Z,12.23
2017-12-31T12:40:21.523Z,14.07
2017-12-31T12:42:48.955Z,18.87
2017-12-31T12:45:16.387Z,16.00
2017-12-31T12:47:43.814Z,15.23
2017-12-31T12:50:11.638Z,15.43
2017-12-31T12:52:39.822Z,17.83
2017-12-31T12:55:07.236Z,9.30
2017-12-31T12:57:34.654Z,17.73
2017-12-31T13:00:02.680Z,10.70
2017-12-31T13:02:32.289Z,15.00
2017-12-31T13:04:59.740Z,14.00
2017-12-31T13:07:27.196Z,19.27
2017-12-31T13:09:54.654Z,11.53
2017-12-31T13:12:22.088Z,23.60
2017-12-31T13:14:50.489Z,18.23
2017-12-31T13:17:17.936Z,14.80
2017-12-31T13:19:45.388Z,15.43
2017-12-31T13:22:12.857Z,14.50
2017-12-31T13:24:40.556Z,18.57
2017-12-31T13:27:08.379Z,11.07
2017-12-31T13:29:35.849Z,10.80
2017-12-31T13:32:03.410Z,11.93
2017-12-31T13:34:30.832Z,14.17
2017-12-31T13:36:58.284Z,14.60
2017-12-31T13:39:25.871Z,20.33
2017-12-31T13:41:53.295Z,17.73
2017-12-31T13:44:20.736Z,10.90
2017-12-31T13:46:48.208Z,22.10
2017-12-31T13:49:15.643Z,23.57
2017-12-31T13:51:43.075Z,11.50
2017-12-31T13:54:10.931Z,12.30
2017-12-31T13:56:38.785Z,15.73
2017-12-31T13:59:06.204Z,13.17
2017-12-31T14:01:33.779Z,9.00
2017-12-31T14:04:01.212Z,14.47
2017-12-31T14:06:28.645Z,13.10
2017-12-31T14:08:56.080Z,14.80
2017-12-31T14:11:23.903Z,26.50
2017-12-31T14:13:51.326Z,10.97
2017-12-31T14:16:19.609Z,17.77
2017-12-31T14:18:47.196Z,21.33
2017-12-31T14:21:14.620Z,16.73
2017-12-31T14:23:42.051Z,14.10
2017-12-31T14:26:09.523Z,13.13
2017-12-31T14:28:36.955Z,18.93
2017-12-31T14:31:04.394Z,15.27
2017-12-31T14:33:32.227Z,13.10
2017-12-31T14:35:59.656Z,23.70
2017-12-31T14:38:27.091Z,19.37
2017-12-31T14:40:54.890Z,20.20
2017-12-31T14:43:22.320Z,25.37
2017-12-31T14:45:49.759Z,23.77
2017-12-31T14:48:17.200Z,17.90
2017-12-31T14:50:45.049Z,23.27
2017-12-31T14:53:12.511Z,22.07
2017-12-31T14:55:39.935Z,24.67
2017-12-31T14:58:07.375Z,17.43
2017-12-31T15:00:35.104Z,24.50
2017-12-31T15:03:02.535Z,20.80
2017-12-31T15:05:30.355Z,24.10
2017-12-31T15:07:57.803Z,22.83
2017-12-31T15:10:25.233Z,12.70
2017-12-31T15:12:52.660Z,17.30
2017-12-31T15:15:20.499Z,16.47
2017-12-31T15:17:47.951Z,25.77
2017-12-31T15:20:15.629Z,19.57
2017-12-31T15:22:43.020Z,15.10
2017-12-31T15:25:10.443Z,16.13
2017-12-31T15:27:37.880Z,14.97
2017-12-31T15:30:05.322Z,15.70
2017-12-31T15:32:32.756Z,15.60
2017-12-31T15:35:00.421Z,14.13
2017-12-31T15:37:27.875Z,13.00
2017-12-31T15:39:55.323Z,25.13
2017-12-31T15:42:22.751Z,21.90
2017-12-31T15:44:50.569Z,17.03
2017-12-31T15:47:17.997Z,15.13
2017-12-31T15:49:45.764Z,18.17
2017-12-31T15:52:13.191Z,20.90
2017-12-31T15:54:41.500Z,25.60
2017-12-31T15:57:08.933Z,24.37
2017-12-31T15:59:36.384Z,22.40
2017-12-31T16:02:04.991Z,21.70
2017-12-31T16:04:32.416Z,25.17
2017-12-31T16:06:59.838Z,24.07
2017-12-31T16:09:27.674Z,25.53
2017-12-31T16:11:55.095Z,32.13
2017-12-31T16:14:22.522Z,29.77
2017-12-31T16:16:51.355Z,35.20
2017-12-31T16:19:18.779Z,30.93
2017-12-31T16:21:46.223Z,31.73
2017-12-31T16:24:14.060Z,51.77
2017-12-31T16:26:41.495Z,45.80
2017-12-31T16:29:08.933Z,40.13
2017-12-31T16:31:36.544Z,27.47
2017-12-31T16:36:38.487Z,13.37
2017-12-31T16:39:05.927Z,14.03
2017-12-31T16:41:33.351Z,14.80
2017-12-31T16:44:00.787Z,13.80
2017-12-31T16:46:28.599Z,32.00
2017-12-31T16:48:56.027Z,16.27
2017-12-31T16:51:23.767Z,12.23
2017-12-31T16:53:51.847Z,9.53
2017-12-31T16:56:19.269Z,8.77
2017-12-31T16:58:46.719Z,13.53
2017-12-31T17:01:14.144Z,16.33
2017-12-31T17:03:41.572Z,20.00
2017-12-31T17:06:09.006Z,16.10
2017-12-31T17:08:36.822Z,26.83
2017-12-31T17:11:04.253Z,23.57
2017-12-31T17:13:31.782Z,22.57
2017-12-31T17:15:59.607Z,25.43
2017-12-31T17:18:27.040Z,30.13
2017-12-31T17:20:54.492Z,69.50
2017-12-31T17:23:21.919Z,15.90
2017-12-31T17:25:49.752Z,29.37
2017-12-31T17:28:17.179Z,24.20
2017-12-31T17:30:44.612Z,17.63
2017-12-31T17:33:12.068Z,23.63
2017-12-31T17:35:39.496Z,34.80
2017-12-31T17:38:07.327Z,28.73
2017-12-31T17:40:34.763Z,23.93
2017-12-31T17:43:02.187Z,16.30
2017-12-31T17:45:29.625Z,27.80
2017-12-31T17:47:57.451Z,23.53
2017-12-31T17:50:24.882Z,26.70
2017-12-31T17:52:52.354Z,24.30
2017-12-31T17:55:19.813Z,24.60
2017-12-31T17:57:47.243Z,28.73
2017-12-31T18:00:14.671Z,36.87
2017-12-31T18:02:43.330Z,21.10
2017-12-31T18:05:10.756Z,24.13
2017-12-31T18:07:38.200Z,24.60
2017-12-31T18:10:05.740Z,24.30
2017-12-31T18:12:33.167Z,36.87
2017-12-31T18:15:01.003Z,50.67
2017-12-31T18:17:28.460Z,50.20
2017-12-31T18:19:55.893Z,96.30
2017-12-31T18:22:23.329Z,165.53
2017-12-31T18:24:50.782Z,311.73
2017-12-31T18:27:18.221Z,410.30
2017-12-31T18:29:45.651Z,498.07
2017-12-31T18:32:13.507Z,321.53
2017-12-31T18:34:40.935Z,202.00
2017-12-31T18:37:08.371Z,128.53
2017-12-31T18:39:36.652Z,134.83
2017-12-31T18:42:04.087Z,200.20
2017-12-31T18:44:31.523Z,226.33
2017-12-31T18:46:59.356Z,143.03
2017-12-31T18:49:26.955Z,169.00
2017-12-31T18:51:54.396Z,174.43
2017-12-31T18:54:22.225Z,106.47
2017-12-31T18:56:49.827Z,96.97
2017-12-31T18:59:17.259Z,63.77
2017-12-31T19:01:44.687Z,54.70
2017-12-31T19:04:12.143Z,67.13
2017-12-31T19:06:39.584Z,63.73
2017-12-31T19:09:07.012Z,79.50
2017-12-31T19:11:34.438Z,75.50
2017-12-31T19:14:02.264Z,73.47
2017-12-31T19:16:30.156Z,72.27
2017-12-31T19:18:57.590Z,85.87
2017-12-31T19:21:25.028Z,84.20
2017-12-31T19:23:53.607Z,98.30
2017-12-31T19:26:21.046Z,116.87
2017-12-31T19:28:48.474Z,135.03
2017-12-31T19:31:16.324Z,116.13
2017-12-31T19:33:43.751Z,109.17
2017-12-31T19:36:11.186Z,128.53
2017-12-31T19:38:38.623Z,116.90
2017-12-31T19:41:06.058Z,121.93
2017-12-31T19:43:33.889Z,98.20
2017-12-31T19:46:01.357Z,123.03
2017-12-31T19:48:28.770Z,130.57
2017-12-31T19:50:56.208Z,96.93
2017-12-31T19:53:23.636Z,210.13
2017-12-31T19:55:51.468Z,160.07
2017-12-31T19:58:18.908Z,116.43
2017-12-31T20:00:46.331Z,168.50
2017-12-31T20:03:14.114Z,147.07
2017-12-31T20:05:41.547Z,341.97
2017-12-31T20:08:08.979Z,199.80
2017-12-31T20:10:36.816Z,138.90
2017-12-31T20:13:04.248Z,149.27
2017-12-31T20:15:31.683Z,156.13
2017-12-31T20:17:59.135Z,259.67
2017-12-31T20:20:26.566Z,353.90
2017-12-31T20:22:54.394Z,163.27
2017-12-31T20:25:21.831Z,159.87
2017-12-31T20:27:49.260Z,143.30
2017-12-31T20:30:16.705Z,114.60
2017-12-31T20:32:44.527Z,126.27
2017-12-31T20:35:11.976Z,144.87
2017-12-31T20:37:39.413Z,152.77
2017-12-31T20:40:06.847Z,203.30
2017-12-31T20:42:34.309Z,154.20
2017-12-31T20:45:01.743Z,164.40
2017-12-31T20:47:29.180Z,162.53
2017-12-31T20:49:57.035Z,238.43
2017-12-31T20:52:24.467Z,141.83
2017-12-31T20:54:51.905Z,120.50
2017-12-31T20:57:19.361Z,120.57
2017-12-31T20:59:46.823Z,156.63
2017-12-31T21:02:14.251Z,120.00
2017-12-31T21:04:41.704Z,121.03
2017-12-31T21:07:09.151Z,191.33
2017-12-31T21:09:36.974Z,150.33
2017-12-31T21:12:04.411Z,95.57
2017-12-31T21:14:31.857Z,109.00
2017-12-31T21:16:59.283Z,114.13
2017-12-31T21:19:27.795Z,104.00
2017-12-31T21:21:55.235Z,111.93
2017-12-31T21:24:22.664Z,103.37
2017-12-31T21:26:50.115Z,116.40
2017-12-31T21:29:17.548Z,123.20
2017-12-31T21:31:44.978Z,107.90
2017-12-31T21:34:12.459Z,115.50
2017-12-31T21:36:39.887Z,133.70
2017-12-31T21:39:07.340Z,143.53
2017-12-31T21:41:34.775Z,138.40
2017-12-31T21:44:02.216Z,125.70
2017-12-31T21:46:29.668Z,123.03
2017-12-31T21:48:57.096Z,123.37
2017-12-31T21:51:24.919Z,155.80
2017-12-31T21:53:52.355Z,127.70
2017-12-31T21:56:19.796Z,137.63
2017-12-31T21:58:47.227Z,142.63
2017-12-31T22:01:15.081Z,131.70
2017-12-31T22:03:42.508Z,118.90
2017-12-31T22:06:09.939Z,110.43
2017-12-31T22:08:37.383Z,110.67
2017-12-31T22:11:04.996Z,266.17
2017-12-31T22:13:32.436Z,163.17
2017-12-31T22:15:59.868Z,122.97
2017-12-31T22:18:27.304Z,150.77
2017-12-31T22:20:54.743Z,159.13
2017-12-31T22:23:22.580Z,90.50
2017-12-31T22:25:50.011Z,117.00
2017-12-31T22:28:17.447Z,133.53
2017-12-31T22:30:44.892Z,113.63
2017-12-31T22:33:12.315Z,113.00
2017-12-31T22:35:40.739Z,109.00
2017-12-31T22:38:08.195Z,98.30
2017-12-31T22:40:35.627Z,102.37
2017-12-31T22:43:03.051Z,97.10
2017-12-31T22:45:30.927Z,122.63
2017-12-31T22:47:58.747Z,77.50
2017-12-31T22:50:26.185Z,93.17
2017-12-31T22:52:53.617Z,77.07
2017-12-31T22:55:21.036Z,80.70
2017-12-31T22:57:48.583Z,95.63
2017-12-31T23:00:16.022Z,128.10
2017-12-31T23:02:43.456Z,328.40
2017-12-31T23:05:10.907Z,353.30
2017-12-31T23:07:38.347Z,664.87
2017-12-31T23:10:05.784Z,1109.77
2017-12-31T23:12:33.632Z,1057.83
2017-12-31T23:15:01.069Z,1058.27
2017-12-31T23:17:28.502Z,1057.43
2017-12-31T23:19:55.971Z,960.20
2017-12-31T23:22:23.402Z,948.30
2017-12-31T23:24:50.844Z,863.10
2017-12-31T23:27:18.299Z,958.03
2017-12-31T23:29:45.735Z,962.30
2017-12-31T23:32:13.176Z,1005.00
2017-12-31T23:34:40.876Z,1104.23
2017-12-31T23:37:08.384Z,695.27
2017-12-31T23:39:35.817Z,865.57
2017-12-31T23:42:03.271Z,831.73
2017-12-31T23:44:30.704Z,722.67
2017-12-31T23:46:58.139Z,796.77
2017-12-31T23:49:25.596Z,842.50
2017-12-31T23:51:53.083Z,643.70
2017-12-31T23:54:20.521Z,651.53
2017-12-31T23:56:47.991Z,667.10
2017-12-31T23:59:15.426Z,632.20
